sensor_id;sensor_type;location;lat;lon;timestamp;pressure;altitude;pressure_sealevel;temperature;humidity
73628;BME280;61923;51.846;5.856;2022-12-07T00:01:37;101704.13;;;12.93;67.52
73628;BME280;61923;51.846;5.856;2022-12-07T00:04:05;101699.88;;;12.92;67.68
73628;BME280;61923;51.846;5.856;2022-12-07T00:06:40;101706.03;;;12.91;67.74
73628;BME280;61923;51.846;5.856;2022-12-07T00:09:07;101706.03;;;12.91;67.64
73628;BME280;61923;51.846;5.856;2022-12-07T00:11:34;101701.88;;;12.89;68.04
73628;BME280;61923;51.846;5.856;2022-12-07T00:14:02;101703.53;;;12.90;67.90
73628;BME280;61923;51.846;5.856;2022-12-07T00:16:31;101701.06;;;12.88;67.92
73628;BME280;61923;51.846;5.856;2022-12-07T00:18:57;101700.22;;;12.88;67.96
73628;BME280;61923;51.846;5.856;2022-12-07T00:21:28;101696.78;;;12.87;68.24
73628;BME280;61923;51.846;5.856;2022-12-07T00:23:55;101702.00;;;12.87;68.10
73628;BME280;61923;51.846;5.856;2022-12-07T00:26:37;101696.91;;;12.86;68.03
73628;BME280;61923;51.846;5.856;2022-12-07T00:29:11;101693.47;;;12.85;68.07
73628;BME280;61923;51.846;5.856;2022-12-07T00:31:37;101697.88;;;12.85;68.27
73628;BME280;61923;51.846;5.856;2022-12-07T00:34:04;101695.25;;;12.85;68.29
73628;BME280;61923;51.846;5.856;2022-12-07T00:36:30;101684.84;;;12.85;68.46
73628;BME280;61923;51.846;5.856;2022-12-07T00:38:57;101678.81;;;12.84;68.22
73628;BME280;61923;51.846;5.856;2022-12-07T00:41:24;101684.00;;;12.84;68.73
73628;BME280;61923;51.846;5.856;2022-12-07T00:43:51;101686.63;;;12.84;68.74
73628;BME280;61923;51.846;5.856;2022-12-07T00:46:17;101681.53;;;12.83;68.76
73628;BME280;61923;51.846;5.856;2022-12-07T00:48:43;101673.94;;;12.80;68.86
73628;BME280;61923;51.846;5.856;2022-12-07T00:51:11;101674.63;;;12.82;69.10
73628;BME280;61923;51.846;5.856;2022-12-07T00:53:38;101671.22;;;12.81;68.85
73628;BME280;61923;51.846;5.856;2022-12-07T00:56:24;101672.19;;;12.80;69.03
73628;BME280;61923;51.846;5.856;2022-12-07T00:58:52;101667.78;;;12.81;69.72
73628;BME280;61923;51.846;5.856;2022-12-07T01:01:17;101668.72;;;12.80;68.93
73628;BME280;61923;51.846;5.856;2022-12-07T01:03:43;101666.97;;;12.80;68.60
73628;BME280;61923;51.846;5.856;2022-12-07T01:06:08;101670.50;;;12.79;69.33
73628;BME280;61923;51.846;5.856;2022-12-07T01:08:34;101672.19;;;12.80;69.19
73628;BME280;61923;51.846;5.856;2022-12-07T01:11:07;101670.38;;;12.81;69.03
73628;BME280;61923;51.846;5.856;2022-12-07T01:13:34;101665.41;;;12.78;68.96
73628;BME280;61923;51.846;5.856;2022-12-07T01:16:02;101676.53;;;12.80;68.64
73628;BME280;61923;51.846;5.856;2022-12-07T01:18:29;101677.50;;;12.79;68.86
73628;BME280;61923;51.846;5.856;2022-12-07T01:21:01;101683.66;;;12.78;68.92
73628;BME280;61923;51.846;5.856;2022-12-07T01:23:26;101679.28;;;12.78;69.08
73628;BME280;61923;51.846;5.856;2022-12-07T01:25:59;101686.13;;;12.79;69.30
73628;BME280;61923;51.846;5.856;2022-12-07T01:28:26;101682.81;;;12.77;69.36
73628;BME280;61923;51.846;5.856;2022-12-07T01:33:27;101673.22;;;12.78;69.57
73628;BME280;61923;51.846;5.856;2022-12-07T01:35:53;101674.31;;;12.75;69.44
73628;BME280;61923;51.846;5.856;2022-12-07T01:38:19;101671.56;;;12.77;69.36
73628;BME280;61923;51.846;5.856;2022-12-07T01:40:44;101670.88;;;12.74;70.03
73628;BME280;61923;51.846;5.856;2022-12-07T01:43:16;101670.75;;;12.76;69.71
73628;BME280;61923;51.846;5.856;2022-12-07T01:45:43;101679.41;;;12.77;69.24
73628;BME280;61923;51.846;5.856;2022-12-07T01:48:10;101682.81;;;12.77;68.87
73628;BME280;61923;51.846;5.856;2022-12-07T01:50:37;101669.78;;;12.77;69.40
73628;BME280;61923;51.846;5.856;2022-12-07T01:53:05;101669.69;;;12.79;69.27
73628;BME280;61923;51.846;5.856;2022-12-07T01:55:31;101674.06;;;12.78;69.16
73628;BME280;61923;51.846;5.856;2022-12-07T01:57:57;101679.28;;;12.78;69.34
73628;BME280;61923;51.846;5.856;2022-12-07T02:00:23;101669.78;;;12.77;69.58
73628;BME280;61923;51.846;5.856;2022-12-07T02:05:30;101668.97;;;12.77;69.64
73628;BME280;61923;51.846;5.856;2022-12-07T02:07:56;101668.84;;;12.78;69.57
73628;BME280;61923;51.846;5.856;2022-12-07T02:10:30;101662.78;;;12.78;69.64
73628;BME280;61923;51.846;5.856;2022-12-07T02:13:02;101668.00;;;12.78;69.64
73628;BME280;61923;51.846;5.856;2022-12-07T02:15:45;101668.00;;;12.78;69.55
73628;BME280;61923;51.846;5.856;2022-12-07T02:18:16;101665.53;;;12.76;69.57
73628;BME280;61923;51.846;5.856;2022-12-07T02:26:36;101668.97;;;12.77;69.86
73628;BME280;61923;51.846;5.856;2022-12-07T02:29:20;101663.88;;;12.75;69.47
73628;BME280;61923;51.846;5.856;2022-12-07T02:32:18;101670.75;;;12.76;69.50
73628;BME280;61923;51.846;5.856;2022-12-07T02:37:48;101668.16;;;12.76;69.80
73628;BME280;61923;51.846;5.856;2022-12-07T02:40:22;101676.91;;;12.75;69.61
73628;BME280;61923;51.846;5.856;2022-12-07T02:42:55;101673.38;;;12.76;70.15
73628;BME280;61923;51.846;5.856;2022-12-07T02:45:25;101670.75;;;12.76;69.96
73628;BME280;61923;51.846;5.856;2022-12-07T02:47:56;101668.25;;;12.74;70.37
73628;BME280;61923;51.846;5.856;2022-12-07T02:50:24;101670.03;;;12.74;69.86
73628;BME280;61923;51.846;5.856;2022-12-07T02:52:49;101669.09;;;12.75;70.09
73628;BME280;61923;51.846;5.856;2022-12-07T02:55:17;101668.25;;;12.74;70.13
73628;BME280;61923;51.846;5.856;2022-12-07T02:58:22;101670.16;;;12.72;69.57
73628;BME280;61923;51.846;5.856;2022-12-07T03:03:25;101672.63;;;12.74;70.05
73628;BME280;61923;51.846;5.856;2022-12-07T03:06:20;101672.78;;;12.72;69.77
73628;BME280;61923;51.846;5.856;2022-12-07T03:08:56;101663.16;;;12.73;70.43
73628;BME280;61923;51.846;5.856;2022-12-07T03:11:30;101664.34;;;12.69;70.15
73628;BME280;61923;51.846;5.856;2022-12-07T03:14:05;101662.47;;;12.71;70.12
73628;BME280;61923;51.846;5.856;2022-12-07T03:16:45;101659.84;;;12.71;69.91
73628;BME280;61923;51.846;5.856;2022-12-07T03:19:17;101672.88;;;12.71;69.91
73628;BME280;61923;51.846;5.856;2022-12-07T03:21:47;101666.72;;;12.72;69.92
73628;BME280;61923;51.846;5.856;2022-12-07T03:24:20;101672.78;;;12.72;69.76
73628;BME280;61923;51.846;5.856;2022-12-07T03:27:04;101682.22;;;12.73;70.07
73628;BME280;61923;51.846;5.856;2022-12-07T03:29:46;101671.09;;;12.71;70.06
73628;BME280;61923;51.846;5.856;2022-12-07T03:32:27;101670.28;;;12.71;69.94
73628;BME280;61923;51.846;5.856;2022-12-07T03:35:34;101664.34;;;12.69;69.80
73628;BME280;61923;51.846;5.856;2022-12-07T03:38:14;101667.66;;;12.71;69.83
73628;BME280;61923;51.846;5.856;2022-12-07T03:40:48;101663.28;;;12.71;70.01
73628;BME280;61923;51.846;5.856;2022-12-07T03:43:17;101657.25;;;12.71;69.95
73628;BME280;61923;51.846;5.856;2022-12-07T03:45:51;101653.69;;;12.72;69.92
73628;BME280;61923;51.846;5.856;2022-12-07T03:49:25;101648.47;;;12.72;70.32
73628;BME280;61923;51.846;5.856;2022-12-07T03:51:39;101648.47;;;12.72;70.07
73628;BME280;61923;51.846;5.856;2022-12-07T03:54:19;101647.66;;;12.71;70.22
73628;BME280;61923;51.846;5.856;2022-12-07T03:56:47;101651.91;;;12.72;70.28
73628;BME280;61923;51.846;5.856;2022-12-07T03:59:14;101648.47;;;12.72;70.20
73628;BME280;61923;51.846;5.856;2022-12-07T04:01:42;101651.78;;;12.74;70.40
73628;BME280;61923;51.846;5.856;2022-12-07T04:04:08;101645.84;;;12.72;70.29
73628;BME280;61923;51.846;5.856;2022-12-07T04:06:33;101655.34;;;12.73;70.20
73628;BME280;61923;51.846;5.856;2022-12-07T04:08:59;101650.13;;;12.73;70.06
73628;BME280;61923;51.846;5.856;2022-12-07T04:11:24;101659.59;;;12.74;70.49
73628;BME280;61923;51.846;5.856;2022-12-07T04:13:49;101649.16;;;12.74;70.38
73628;BME280;61923;51.846;5.856;2022-12-07T04:16:33;101642.31;;;12.73;69.89
73628;BME280;61923;51.846;5.856;2022-12-07T04:18:58;101639.72;;;12.73;70.49
73628;BME280;61923;51.846;5.856;2022-12-07T04:21:24;101621.25;;;12.65;70.35
73628;BME280;61923;51.846;5.856;2022-12-07T04:23:49;101638.88;;;12.72;70.36
73628;BME280;61923;51.846;5.856;2022-12-07T04:26:14;101636.13;;;12.74;70.30
73628;BME280;61923;51.846;5.856;2022-12-07T04:28:40;101638.88;;;12.72;70.45
73628;BME280;61923;51.846;5.856;2022-12-07T04:31:05;101643.13;;;12.73;70.12
73628;BME280;61923;51.846;5.856;2022-12-07T04:33:30;101642.19;;;12.74;70.12
73628;BME280;61923;51.846;5.856;2022-12-07T04:35:56;101642.31;;;12.73;70.21
73628;BME280;61923;51.846;5.856;2022-12-07T04:38:21;101645.63;;;12.75;70.24
73628;BME280;61923;51.846;5.856;2022-12-07T04:40:46;101645.75;;;12.73;70.54
73628;BME280;61923;51.846;5.856;2022-12-07T04:43:12;101640.53;;;12.73;70.43
73628;BME280;61923;51.846;5.856;2022-12-07T04:45:37;101642.31;;;12.73;70.22
73628;BME280;61923;51.846;5.856;2022-12-07T04:48:03;101640.53;;;12.73;70.32
73628;BME280;61923;51.846;5.856;2022-12-07T04:50:28;101636.13;;;12.74;70.71
73628;BME280;61923;51.846;5.856;2022-12-07T04:52:53;101630.94;;;12.74;70.14
73628;BME280;61923;51.846;5.856;2022-12-07T04:55:19;101638.75;;;12.74;70.39
73628;BME280;61923;51.846;5.856;2022-12-07T04:57:44;101645.75;;;12.73;70.46
73628;BME280;61923;51.846;5.856;2022-12-07T05:00:10;101641.34;;;12.74;70.21
73628;BME280;61923;51.846;5.856;2022-12-07T05:02:35;101640.53;;;12.73;70.39
73628;BME280;61923;51.846;5.856;2022-12-07T05:05:00;101637.00;;;12.74;70.36
73628;BME280;61923;51.846;5.856;2022-12-07T05:07:26;101642.19;;;12.74;70.45
73628;BME280;61923;51.846;5.856;2022-12-07T05:09:51;101637.00;;;12.74;70.79
73628;BME280;61923;51.846;5.856;2022-12-07T05:12:16;101636.13;;;12.74;70.59
73628;BME280;61923;51.846;5.856;2022-12-07T05:14:42;101636.13;;;12.74;70.49
73628;BME280;61923;51.846;5.856;2022-12-07T05:17:07;101633.53;;;12.74;70.23
73628;BME280;61923;51.846;5.856;2022-12-07T05:19:33;101630.94;;;12.74;70.58
73628;BME280;61923;51.846;5.856;2022-12-07T05:21:58;101636.13;;;12.74;70.45
73628;BME280;61923;51.846;5.856;2022-12-07T05:24:23;101625.72;;;12.74;70.73
73628;BME280;61923;51.846;5.856;2022-12-07T05:26:49;101630.94;;;12.74;70.54
73628;BME280;61923;51.846;5.856;2022-12-07T05:29:16;101630.94;;;12.74;70.93
73628;BME280;61923;51.846;5.856;2022-12-07T05:31:42;101630.09;;;12.73;70.75
73628;BME280;61923;51.846;5.856;2022-12-07T05:34:08;101632.25;;;12.68;70.44
73628;BME280;61923;51.846;5.856;2022-12-07T05:36:33;101631.19;;;12.71;70.92
73628;BME280;61923;51.846;5.856;2022-12-07T05:38:59;101634.59;;;12.71;70.72
73628;BME280;61923;51.846;5.856;2022-12-07T05:41:25;101633.69;;;12.72;70.49
73628;BME280;61923;51.846;5.856;2022-12-07T05:44:09;101638.03;;;12.72;70.58
73628;BME280;61923;51.846;5.856;2022-12-07T05:46:35;101637.22;;;12.71;70.82
73628;BME280;61923;51.846;5.856;2022-12-07T05:49:00;101631.06;;;12.72;70.74
73628;BME280;61923;51.846;5.856;2022-12-07T05:51:26;101634.50;;;12.73;71.18
73628;BME280;61923;51.846;5.856;2022-12-07T05:53:52;101628.69;;;12.69;70.68
73628;BME280;61923;51.846;5.856;2022-12-07T05:56:17;101622.41;;;12.72;70.67
73628;BME280;61923;51.846;5.856;2022-12-07T05:58:43;101622.41;;;12.72;71.54
73628;BME280;61923;51.846;5.856;2022-12-07T06:01:27;101619.09;;;12.70;71.53
73628;BME280;61923;51.846;5.856;2022-12-07T06:03:52;101620.75;;;12.71;70.74
73628;BME280;61923;51.846;5.856;2022-12-07T06:06:21;101621.59;;;12.71;71.01
73628;BME280;61923;51.846;5.856;2022-12-07T06:08:46;101624.31;;;12.70;70.38
73628;BME280;61923;51.846;5.856;2022-12-07T06:11:11;101620.88;;;12.69;70.54
73628;BME280;61923;51.846;5.856;2022-12-07T06:13:56;101614.84;;;12.69;71.13
73628;BME280;61923;51.846;5.856;2022-12-07T06:16:21;101618.25;;;12.69;71.12
73628;BME280;61923;51.846;5.856;2022-12-07T06:18:46;101622.66;;;12.69;71.34
73628;BME280;61923;51.846;5.856;2022-12-07T06:21:12;101629.66;;;12.68;70.77
73628;BME280;61923;51.846;5.856;2022-12-07T06:23:37;101630.59;;;12.67;70.97
73628;BME280;61923;51.846;5.856;2022-12-07T06:26:02;101627.16;;;12.67;71.18
73628;BME280;61923;51.846;5.856;2022-12-07T06:28:28;101627.06;;;12.68;71.13
73628;BME280;61923;51.846;5.856;2022-12-07T06:31:00;101625.38;;;12.67;71.37
73628;BME280;61923;51.846;5.856;2022-12-07T06:33:26;101633.19;;;12.67;71.31
73628;BME280;61923;51.846;5.856;2022-12-07T06:35:52;101635.81;;;12.67;70.77
73628;BME280;61923;51.846;5.856;2022-12-07T06:38:17;101624.56;;;12.67;70.92
73628;BME280;61923;51.846;5.856;2022-12-07T06:40:42;101628.00;;;12.67;70.76
73628;BME280;61923;51.846;5.856;2022-12-07T06:43:08;101627.16;;;12.67;71.03
73628;BME280;61923;51.846;5.856;2022-12-07T06:45:33;101627.16;;;12.67;70.91
73628;BME280;61923;51.846;5.856;2022-12-07T06:47:59;101629.78;;;12.67;71.56
73628;BME280;61923;51.846;5.856;2022-12-07T06:50:24;101634.97;;;12.67;70.91
73628;BME280;61923;51.846;5.856;2022-12-07T06:52:51;101630.59;;;12.67;71.04
73628;BME280;61923;51.846;5.856;2022-12-07T06:55:16;101628.81;;;12.68;71.14
73628;BME280;61923;51.846;5.856;2022-12-07T06:57:41;101627.16;;;12.67;71.65
73628;BME280;61923;51.846;5.856;2022-12-07T07:00:07;101634.16;;;12.66;71.40
73628;BME280;61923;51.846;5.856;2022-12-07T07:02:33;101636.50;;;12.69;70.93
73628;BME280;61923;51.846;5.856;2022-12-07T07:04:58;101636.41;;;12.71;71.08
73628;BME280;61923;51.846;5.856;2022-12-07T07:07:24;101631.41;;;12.68;70.67
73628;BME280;61923;51.846;5.856;2022-12-07T07:09:49;101634.88;;;12.68;71.65
73628;BME280;61923;51.846;5.856;2022-12-07T07:12:14;101636.41;;;12.71;71.33
73628;BME280;61923;51.846;5.856;2022-12-07T07:14:40;101637.34;;;12.70;71.24
73628;BME280;61923;51.846;5.856;2022-12-07T07:17:05;101644.91;;;12.73;71.01
73628;BME280;61923;51.846;5.856;2022-12-07T07:19:30;101643.84;;;12.75;70.82
73628;BME280;61923;51.846;5.856;2022-12-07T07:21:56;101636.50;;;12.81;70.70
73628;BME280;61923;51.846;5.856;2022-12-07T07:24:21;101639.00;;;12.82;69.67
73628;BME280;61923;51.846;5.856;2022-12-07T07:26:47;101632.00;;;12.83;70.07
73628;BME280;61923;51.846;5.856;2022-12-07T07:29:12;101642.16;;;12.86;70.01
73628;BME280;61923;51.846;5.856;2022-12-07T07:31:37;101643.94;;;12.85;69.56
73628;BME280;61923;51.846;5.856;2022-12-07T07:34:03;101646.56;;;12.85;69.34
73628;BME280;61923;51.846;5.856;2022-12-07T07:36:28;101642.31;;;12.84;69.57
73628;BME280;61923;51.846;5.856;2022-12-07T07:38:53;101640.63;;;12.83;69.49
73628;BME280;61923;51.846;5.856;2022-12-07T07:41:19;101639.00;;;12.82;69.04
73628;BME280;61923;51.846;5.856;2022-12-07T07:43:44;101640.63;;;12.83;68.96
73628;BME280;61923;51.846;5.856;2022-12-07T07:46:09;101642.41;;;12.83;68.89
73628;BME280;61923;51.846;5.856;2022-12-07T07:48:35;101644.22;;;12.82;69.01
73628;BME280;61923;51.846;5.856;2022-12-07T07:51:05;101646.66;;;12.84;68.97
73628;BME280;61923;51.846;5.856;2022-12-07T07:53:30;101645.84;;;12.83;69.22
73628;BME280;61923;51.846;5.856;2022-12-07T07:55:56;101648.44;;;12.83;68.89
73628;BME280;61923;51.846;5.856;2022-12-07T07:58:21;101645.03;;;12.83;68.82
73628;BME280;61923;51.846;5.856;2022-12-07T08:00:47;101651.88;;;12.84;68.83
73628;BME280;61923;51.846;5.856;2022-12-07T08:03:12;101648.56;;;12.82;68.80
73628;BME280;61923;51.846;5.856;2022-12-07T08:05:38;101651.06;;;12.83;68.79
73628;BME280;61923;51.846;5.856;2022-12-07T08:08:04;101655.19;;;12.86;68.82
73628;BME280;61923;51.846;5.856;2022-12-07T08:10:29;101652.59;;;12.86;68.79
73628;BME280;61923;51.846;5.856;2022-12-07T08:12:57;101655.19;;;12.86;68.69
73628;BME280;61923;51.846;5.856;2022-12-07T08:15:47;101656.88;;;12.87;68.59
73628;BME280;61923;51.846;5.856;2022-12-07T08:18:14;101654.84;;;12.90;68.52
73628;BME280;61923;51.846;5.856;2022-12-07T08:20:41;101643.47;;;12.91;68.34
73628;BME280;61923;51.846;5.856;2022-12-07T08:23:09;101650.78;;;12.98;67.94
73628;BME280;61923;51.846;5.856;2022-12-07T08:25:35;101657.56;;;13.00;68.28
73628;BME280;61923;51.846;5.856;2022-12-07T08:28:01;101647.94;;;13.01;68.08
73628;BME280;61923;51.846;5.856;2022-12-07T08:30:27;101658.38;;;13.01;68.08
73628;BME280;61923;51.846;5.856;2022-12-07T08:32:53;101649.59;;;13.02;67.97
73628;BME280;61923;51.846;5.856;2022-12-07T08:35:19;101652.34;;;13.00;67.94
73628;BME280;61923;51.846;5.856;2022-12-07T08:37:44;101656.59;;;13.01;68.13
73628;BME280;61923;51.846;5.856;2022-12-07T08:40:11;101655.66;;;13.02;67.78
73628;BME280;61923;51.846;5.856;2022-12-07T08:42:41;101660.72;;;13.04;67.97
73628;BME280;61923;51.846;5.856;2022-12-07T08:45:09;101662.41;;;13.05;67.87
73628;BME280;61923;51.846;5.856;2022-12-07T08:47:37;101664.75;;;13.08;67.92
73628;BME280;61923;51.846;5.856;2022-12-07T08:50:06;101657.63;;;13.10;67.58
73628;BME280;61923;51.846;5.856;2022-12-07T08:52:33;101661.78;;;13.12;67.44
73628;BME280;61923;51.846;5.856;2022-12-07T08:55:00;101667.00;;;13.12;67.50
73628;BME280;61923;51.846;5.856;2022-12-07T08:57:27;101660.22;;;13.10;67.70
73628;BME280;61923;51.846;5.856;2022-12-07T08:59:53;101664.75;;;13.08;67.48
73628;BME280;61923;51.846;5.856;2022-12-07T09:02:19;101656.22;;;13.06;68.10
73628;BME280;61923;51.846;5.856;2022-12-07T09:04:44;101663.91;;;13.07;68.66
73628;BME280;61923;51.846;5.856;2022-12-07T09:07:09;101663.09;;;13.07;68.04
73628;BME280;61923;51.846;5.856;2022-12-07T09:09:35;101657.63;;;13.10;68.03
73628;BME280;61923;51.846;5.856;2022-12-07T09:12:00;101660.94;;;13.12;67.66
73628;BME280;61923;51.846;5.856;2022-12-07T09:14:26;101661.78;;;13.12;67.65
73628;BME280;61923;51.846;5.856;2022-12-07T09:16:51;101660.22;;;13.10;67.94
73628;BME280;61923;51.846;5.856;2022-12-07T09:19:16;101660.13;;;13.11;67.91
73628;BME280;61923;51.846;5.856;2022-12-07T09:21:42;101670.53;;;13.11;68.10
73628;BME280;61923;51.846;5.856;2022-12-07T09:24:07;101659.28;;;13.11;68.43
73628;BME280;61923;51.846;5.856;2022-12-07T09:26:34;101659.19;;;13.12;68.11
73628;BME280;61923;51.846;5.856;2022-12-07T09:29:00;101666.03;;;13.13;67.97
73628;BME280;61923;51.846;5.856;2022-12-07T09:31:26;101674.72;;;13.14;67.83
73628;BME280;61923;51.846;5.856;2022-12-07T09:33:56;101667.81;;;13.13;67.77
73628;BME280;61923;51.846;5.856;2022-12-07T09:36:21;101664.50;;;13.11;67.86
73628;BME280;61923;51.846;5.856;2022-12-07T09:38:47;101666.16;;;13.12;67.74
73628;BME280;61923;51.846;5.856;2022-12-07T09:41:12;101671.38;;;13.12;67.66
73628;BME280;61923;51.846;5.856;2022-12-07T09:43:38;101649.81;;;13.10;67.49
73628;BME280;61923;51.846;5.856;2022-12-07T09:46:05;101651.34;;;13.12;67.84
73628;BME280;61923;51.846;5.856;2022-12-07T09:48:34;101653.97;;;13.12;68.09
73628;BME280;61923;51.846;5.856;2022-12-07T09:51:15;101651.34;;;13.12;68.64
73628;BME280;61923;51.846;5.856;2022-12-07T09:53:42;101666.16;;;13.12;68.20
73628;BME280;61923;51.846;5.856;2022-12-07T09:56:11;101655.03;;;13.10;67.81
73628;BME280;61923;51.846;5.856;2022-12-07T09:58:38;101658.47;;;13.10;68.32
73628;BME280;61923;51.846;5.856;2022-12-07T10:01:17;101651.34;;;13.12;67.62
73628;BME280;61923;51.846;5.856;2022-12-07T10:03:55;101652.06;;;13.14;67.13
73628;BME280;61923;51.846;5.856;2022-12-07T10:06:24;101652.06;;;13.14;67.26
73628;BME280;61923;51.846;5.856;2022-12-07T10:08:49;101646.72;;;13.16;67.35
73628;BME280;61923;51.846;5.856;2022-12-07T10:11:14;101650.03;;;13.18;67.27
73628;BME280;61923;51.846;5.856;2022-12-07T10:13:47;101646.47;;;13.19;67.00
73628;BME280;61923;51.846;5.856;2022-12-07T10:16:39;101646.47;;;13.19;67.12
73628;BME280;61923;51.846;5.856;2022-12-07T10:19:29;101640.16;;;13.22;66.93
73628;BME280;61923;51.846;5.856;2022-12-07T10:22:10;101632.22;;;13.23;67.02
73628;BME280;61923;51.846;5.856;2022-12-07T10:24:37;101625.09;;;13.25;67.04
73628;BME280;61923;51.846;5.856;2022-12-07T10:27:29;101638.84;;;13.27;66.90
73628;BME280;61923;51.846;5.856;2022-12-07T10:29:57;101626.78;;;13.26;66.88
73628;BME280;61923;51.846;5.856;2022-12-07T10:32:35;101628.53;;;13.26;67.00
73628;BME280;61923;51.846;5.856;2022-12-07T10:35:27;101618.94;;;13.26;67.07
73628;BME280;61923;51.846;5.856;2022-12-07T10:37:54;101616.19;;;13.28;67.01
73628;BME280;61923;51.846;5.856;2022-12-07T10:45:35;101597.09;;;13.27;67.02
73628;BME280;61923;51.846;5.856;2022-12-07T10:53:56;101606.72;;;13.27;67.17
73628;BME280;61923;51.846;5.856;2022-12-07T10:56:35;101611.94;;;13.27;67.16
73628;BME280;61923;51.846;5.856;2022-12-07T11:01:53;101605.06;;;13.26;67.22
73628;BME280;61923;51.846;5.856;2022-12-07T11:04:35;101596.41;;;13.25;67.23
73628;BME280;61923;51.846;5.856;2022-12-07T11:07:13;101583.38;;;13.25;67.24
73628;BME280;61923;51.846;5.856;2022-12-07T11:15:24;101579.94;;;13.25;67.34
73628;BME280;61923;51.846;5.856;2022-12-07T11:18:11;101580.63;;;13.27;67.13
73628;BME280;61923;51.846;5.856;2022-12-07T11:20:53;101571.03;;;13.27;67.29
73628;BME280;61923;51.846;5.856;2022-12-07T11:23:53;101575.41;;;13.27;67.08
73628;BME280;61923;51.846;5.856;2022-12-07T11:37:37;101567.47;;;13.28;67.22
73628;BME280;61923;51.846;5.856;2022-12-07T11:40:11;101567.47;;;13.28;67.33
73628;BME280;61923;51.846;5.856;2022-12-07T11:43:18;101553.72;;;13.26;67.33
73628;BME280;61923;51.846;5.856;2022-12-07T11:45:51;101551.25;;;13.25;67.43
73628;BME280;61923;51.846;5.856;2022-12-07T11:48:19;101555.06;;;13.21;67.61
73628;BME280;61923;51.846;5.856;2022-12-07T11:50:51;101555.88;;;13.21;67.71
73628;BME280;61923;51.846;5.856;2022-12-07T11:53:22;101555.63;;;13.24;67.79
73628;BME280;61923;51.846;5.856;2022-12-07T12:01:29;101555.38;;;13.27;67.55
73628;BME280;61923;51.846;5.856;2022-12-07T12:06:37;101544.25;;;13.25;67.53
73628;BME280;61923;51.846;5.856;2022-12-07T12:23:04;101525.50;;;13.31;67.27
73628;BME280;61923;51.846;5.856;2022-12-07T12:25:42;101529.91;;;13.31;67.25
73628;BME280;61923;51.846;5.856;2022-12-07T12:31:32;101525.50;;;13.31;67.28
73628;BME280;61923;51.846;5.856;2022-12-07T12:34:02;101521.94;;;13.32;67.39
73628;BME280;61923;51.846;5.856;2022-12-07T12:47:38;101506.41;;;13.31;67.43
73628;BME280;61923;51.846;5.856;2022-12-07T12:50:15;101508.91;;;13.32;67.51
73628;BME280;61923;51.846;5.856;2022-12-07T12:57:32;101494.91;;;13.33;67.58
73628;BME280;61923;51.846;5.856;2022-12-07T13:00:00;101488.97;;;13.31;67.55
73628;BME280;61923;51.846;5.856;2022-12-07T13:02:27;101493.25;;;13.32;67.79
73628;BME280;61923;51.846;5.856;2022-12-07T13:10:30;101482.81;;;13.32;68.47
73628;BME280;61923;51.846;5.856;2022-12-07T13:15:44;101476.91;;;13.30;67.97
73628;BME280;61923;51.846;5.856;2022-12-07T13:26:16;101472.38;;;13.32;68.25
73628;BME280;61923;51.846;5.856;2022-12-07T13:28:47;101474.03;;;13.33;68.21
73628;BME280;61923;51.846;5.856;2022-12-07T13:31:19;101465.50;;;13.31;68.55
73628;BME280;61923;51.846;5.856;2022-12-07T13:33:46;101460.28;;;13.31;68.17
73628;BME280;61923;51.846;5.856;2022-12-07T13:36:23;101461.25;;;13.30;68.16
73628;BME280;61923;51.846;5.856;2022-12-07T13:39:00;101453.16;;;13.33;67.94
73628;BME280;61923;51.846;5.856;2022-12-07T13:41:35;101444.63;;;13.31;67.80
73628;BME280;61923;51.846;5.856;2022-12-07T13:44:08;101447.81;;;13.35;68.31
73628;BME280;61923;51.846;5.856;2022-12-07T13:49:26;101442.72;;;13.33;68.60
73628;BME280;61923;51.846;5.856;2022-12-07T13:51:53;101438.47;;;13.32;68.63
73628;BME280;61923;51.846;5.856;2022-12-07T13:54:20;101432.44;;;13.32;68.45
73628;BME280;61923;51.846;5.856;2022-12-07T13:56:52;101432.44;;;13.32;68.17
73628;BME280;61923;51.846;5.856;2022-12-07T13:59:25;101428.28;;;13.29;67.97
73628;BME280;61923;51.846;5.856;2022-12-07T14:01:52;101422.94;;;13.31;68.58
73628;BME280;61923;51.846;5.856;2022-12-07T14:06:48;101425.69;;;13.29;69.40
73628;BME280;61923;51.846;5.856;2022-12-07T14:09:20;101426.50;;;13.30;69.39
73628;BME280;61923;51.846;5.856;2022-12-07T14:11:48;101431.00;;;13.28;68.65
73628;BME280;61923;51.846;5.856;2022-12-07T14:14:35;101433.75;;;13.26;68.27
73628;BME280;61923;51.846;5.856;2022-12-07T14:17:17;101425.06;;;13.26;68.47
73628;BME280;61923;51.846;5.856;2022-12-07T14:20:02;101420.00;;;13.24;68.08
73628;BME280;61923;51.846;5.856;2022-12-07T14:22:35;101423.56;;;13.23;68.56
73628;BME280;61923;51.846;5.856;2022-12-07T14:27:38;101422.75;;;13.23;68.53
73628;BME280;61923;51.846;5.856;2022-12-07T14:30:04;101409.69;;;13.23;69.29
73628;BME280;61923;51.846;5.856;2022-12-07T14:32:31;101415.03;;;13.21;69.65
73628;BME280;61923;51.846;5.856;2022-12-07T14:37:29;101404.59;;;13.21;68.66
73628;BME280;61923;51.846;5.856;2022-12-07T14:39:56;101413.41;;;13.20;68.55
73628;BME280;61923;51.846;5.856;2022-12-07T14:42:21;101406.63;;;13.18;68.97
73628;BME280;61923;51.846;5.856;2022-12-07T14:44:48;101403.09;;;13.19;68.92
73628;BME280;61923;51.846;5.856;2022-12-07T14:47:14;101402.13;;;13.20;69.21
73628;BME280;61923;51.846;5.856;2022-12-07T14:49:40;101403.91;;;13.19;69.53
73628;BME280;61923;51.846;5.856;2022-12-07T14:52:06;101401.59;;;13.16;69.28
73628;BME280;61923;51.846;5.856;2022-12-07T14:54:35;101397.19;;;13.17;69.19
73628;BME280;61923;51.846;5.856;2022-12-07T14:57:01;101396.22;;;13.18;70.21
73628;BME280;61923;51.846;5.856;2022-12-07T14:59:27;101401.59;;;13.16;69.30